Time;durP1;ratioP1;P1;durP2;ratioP2;P2;SDS_P1;SDS_P2;PMS_P1;PMS_P2;Temp;Humidity;BMP_temperature;BMP_pressure;BME280_temperature;BME280_humidity;BME280_pressure;Samples;Min_cycle;Max_cycle;Signal;HPM_P1;HPM_P2
2021/11/14 00:01:39;;;;;;;18.48;8.60;;;10.80;99.60;;;;;;4988290;28;20491;-76
2021/11/14 00:04:09;;;;;;;17.20;7.65;;;10.80;99.60;;;;;;5026507;28;20054;-75
2021/11/14 00:06:35;;;;;;;18.93;8.23;;;10.80;99.90;;;;;;4995746;28;20029;-76
2021/11/14 00:09:02;;;;;;;16.15;8.68;;;10.80;99.70;;;;;;4993962;28;20018;-75
2021/11/14 00:11:28;;;;;;;16.80;8.35;;;10.80;99.60;;;;;;4995362;28;20112;-75
2021/11/14 00:13:54;;;;;;;16.70;7.65;;;10.80;99.60;;;;;;4995151;28;20475;-75
2021/11/14 00:16:21;;;;;;;17.33;8.63;;;10.80;99.70;;;;;;4994384;28;20399;-75
2021/11/14 00:18:47;;;;;;;15.30;7.70;;;10.70;99.70;;;;;;4993849;28;20018;-75
2021/11/14 00:21:16;;;;;;;16.98;8.55;;;10.70;99.70;;;;;;4995140;28;20444;-75
2021/11/14 00:23:42;;;;;;;16.20;7.80;;;10.70;99.60;;;;;;5026416;28;20018;-75
2021/11/14 00:26:08;;;;;;;18.17;8.45;;;10.70;99.60;;;;;;4993939;28;20587;-75
2021/11/14 00:28:35;;;;;;;19.20;8.27;;;10.70;99.60;;;;;;4993732;28;20061;-75
2021/11/14 00:31:01;;;;;;;16.85;9.25;;;10.60;99.60;;;;;;4995157;28;20077;-75
2021/11/14 00:33:27;;;;;;;15.55;8.25;;;10.70;99.60;;;;;;5026926;28;20026;-75
2021/11/14 00:35:52;;;;;;;15.82;8.15;;;10.60;99.60;;;;;;4993476;28;20034;-75
2021/11/14 00:38:21;;;;;;;14.63;7.85;;;10.60;99.60;;;;;;4994858;28;20533;-75
2021/11/14 00:40:48;;;;;;;17.02;8.50;;;10.60;99.60;;;;;;4994757;28;20026;-75
2021/11/14 00:43:14;;;;;;;15.95;7.65;;;10.60;99.60;;;;;;4995052;28;20041;-75
2021/11/14 00:45:40;;;;;;;15.77;8.00;;;10.50;99.60;;;;;;4995104;28;20053;-76
2021/11/14 00:48:07;;;;;;;15.57;7.25;;;10.50;99.60;;;;;;4994292;28;20073;-76
2021/11/14 00:50:34;;;;;;;19.52;8.30;;;10.60;99.60;;;;;;4994839;28;20037;-77
2021/11/14 00:53:01;;;;;;;13.93;7.50;;;10.60;99.60;;;;;;4994976;28;20034;-76
2021/11/14 00:55:30;;;;;;;15.48;7.93;;;10.50;99.50;;;;;;5026462;28;20478;-76
2021/11/14 00:57:56;;;;;;;14.18;8.27;;;10.60;99.60;;;;;;4993091;28;20105;-76
2021/11/14 01:00:24;;;;;;;15.95;7.50;;;10.50;99.60;;;;;;4994855;28;20046;-76
2021/11/14 01:02:50;;;;;;;18.33;8.63;;;10.50;99.50;;;;;;4994193;28;20027;-76
2021/11/14 01:05:17;;;;;;;16.35;8.07;;;10.50;99.50;;;;;;4993375;28;20026;-76
2021/11/14 01:07:43;;;;;;;17.35;8.32;;;10.50;99.60;;;;;;4993884;28;20032;-76
2021/11/14 01:10:12;;;;;;;19.08;9.35;;;10.40;99.60;;;;;;4993274;28;20471;-76
2021/11/14 01:12:38;;;;;;;20.55;8.05;;;10.30;99.70;;;;;;4994170;28;20030;-76
2021/11/14 01:15:05;;;;;;;16.75;8.48;;;10.30;99.80;;;;;;4993202;28;20126;-76
2021/11/14 01:17:31;;;;;;;18.58;9.65;;;10.30;99.80;;;;;;4994154;28;20434;-76
2021/11/14 01:19:59;;;;;;;18.23;8.88;;;10.30;99.80;;;;;;4993686;28;20026;-76
2021/11/14 01:22:25;;;;;;;16.70;8.23;;;10.30;99.80;;;;;;4994311;28;20081;-75
2021/11/14 01:24:51;;;;;;;15.75;7.97;;;10.30;99.80;;;;;;4992583;28;20093;-76
2021/11/14 01:27:17;;;;;;;17.50;9.32;;;10.30;99.80;;;;;;4994299;28;20502;-75
2021/11/14 01:29:43;;;;;;;15.90;7.93;;;10.30;99.80;;;;;;4993824;28;20152;-75
2021/11/14 01:32:09;;;;;;;15.85;8.23;;;10.30;99.70;;;;;;4994131;28;20073;-76
2021/11/14 01:34:34;;;;;;;17.92;9.10;;;10.30;99.70;;;;;;5025692;28;20089;-75
2021/11/14 01:37:00;;;;;;;18.33;8.65;;;10.30;99.70;;;;;;4992988;28;20463;-76
2021/11/14 01:39:26;;;;;;;20.45;9.30;;;10.30;99.80;;;;;;4992457;28;20033;-75
2021/11/14 01:41:53;;;;;;;17.65;8.50;;;10.30;99.80;;;;;;4993393;28;20041;-76
2021/11/14 01:44:19;;;;;;;17.85;8.77;;;10.30;99.90;;;;;;4992683;28;20026;-76
2021/11/14 01:46:45;;;;;;;18.52;8.95;;;10.30;99.90;;;;;;4992142;28;20026;-75
2021/11/14 01:49:11;;;;;;;16.15;7.50;;;10.30;99.90;;;;;;4992593;28;20100;-75
2021/11/14 01:51:37;;;;;;;15.32;7.75;;;10.30;99.80;;;;;;4992593;28;20109;-75
2021/11/14 01:54:03;;;;;;;14.82;8.20;;;10.30;99.80;;;;;;4992512;28;20514;-75
2021/11/14 01:56:29;;;;;;;16.42;8.25;;;10.40;99.80;;;;;;4993429;28;20030;-75
2021/11/14 01:58:55;;;;;;;12.40;7.43;;;10.40;99.70;;;;;;4992760;28;20403;-75
2021/11/14 02:01:25;;;;;;;15.60;8.45;;;10.40;99.70;;;;;;4992353;28;20537;-75
2021/11/14 02:03:56;;;;;;;15.73;8.05;;;10.40;99.60;;;;;;4993163;28;20050;-75
2021/11/14 02:06:24;;;;;;;15.77;7.53;;;10.40;99.60;;;;;;4993659;28;20045;-75
2021/11/14 02:08:53;;;;;;;14.43;7.25;;;10.40;99.60;;;;;;4991355;28;20018;-76
2021/11/14 02:11:20;;;;;;;14.98;7.28;;;10.40;99.70;;;;;;4993200;28;20026;-75
2021/11/14 02:13:48;;;;;;;16.20;7.25;;;10.30;99.70;;;;;;4992712;28;20027;-76
2021/11/14 02:16:18;;;;;;;15.63;7.45;;;10.30;99.80;;;;;;5025277;28;20033;-76
2021/11/14 02:18:44;;;;;;;15.27;6.68;;;10.20;99.90;;;;;;5024493;28;20018;-76
2021/11/14 02:21:10;;;;;;;14.38;6.65;;;10.20;99.90;;;;;;4992977;28;20080;-76
2021/11/14 02:23:36;;;;;;;13.25;7.25;;;10.10;99.90;;;;;;4993368;28;20058;-76
2021/11/14 02:26:02;;;;;;;14.80;7.30;;;10.10;99.90;;;;;;4991707;28;20069;-76
2021/11/14 02:28:28;;;;;;;17.45;7.22;;;10.10;99.90;;;;;;4993021;28;20470;-76
2021/11/14 02:30:56;;;;;;;17.63;7.72;;;10.20;99.90;;;;;;4992480;28;20028;-75
2021/11/14 02:33:22;;;;;;;16.25;7.82;;;10.20;99.90;;;;;;4991960;28;20037;-75
2021/11/14 02:35:54;;;;;;;19.38;8.93;;;10.30;99.90;;;;;;5024257;28;20029;-73
2021/11/14 02:38:21;;;;;;;17.08;8.00;;;10.30;99.80;;;;;;4993093;28;20023;-75
2021/11/14 02:40:47;;;;;;;14.73;7.45;;;10.40;99.80;;;;;;4992632;28;20549;-75
2021/11/14 02:43:13;;;;;;;17.45;7.40;;;10.40;99.70;;;;;;4993124;28;20129;-75
2021/11/14 02:45:40;;;;;;;18.55;8.38;;;10.40;99.70;;;;;;4992721;28;20390;-75
2021/11/14 02:48:06;;;;;;;19.10;8.10;;;10.50;99.70;;;;;;5023964;28;20149;-75
2021/11/14 02:50:34;;;;;;;19.90;8.73;;;10.50;99.60;;;;;;4992701;28;20451;-75
2021/11/14 02:53:00;;;;;;;19.48;8.70;;;10.50;99.60;;;;;;4992552;28;20026;-75
2021/11/14 02:55:27;;;;;;;20.33;8.95;;;10.60;99.60;;;;;;5024463;28;20093;-75
2021/11/14 02:57:55;;;;;;;17.70;8.35;;;10.60;99.50;;;;;;4992718;28;20037;-75
2021/11/14 03:00:32;;;;;;;21.05;8.65;;;10.60;99.50;;;;;;5024245;28;20054;-75
2021/11/14 03:02:58;;;;;;;18.88;8.55;;;10.60;99.50;;;;;;4992636;28;20035;-75
2021/11/14 03:05:24;;;;;;;16.52;8.52;;;10.60;99.50;;;;;;5024652;28;20100;-75
2021/11/14 03:07:51;;;;;;;21.63;8.90;;;10.60;99.50;;;;;;4992847;28;20076;-75
2021/11/14 03:10:26;;;;;;;18.15;8.35;;;10.60;99.40;;;;;;5024343;28;20386;-75
2021/11/14 03:12:59;;;;;;;20.60;8.93;;;10.70;99.50;;;;;;4992409;28;20030;-75
2021/11/14 03:15:25;;;;;;;18.20;8.70;;;10.70;99.50;;;;;;4992804;28;20046;-74
2021/11/14 03:17:51;;;;;;;23.90;9.20;;;10.60;99.40;;;;;;4992384;28;20018;-75
2021/11/14 03:20:17;;;;;;;18.98;8.35;;;10.70;99.50;;;;;;4992801;28;20025;-75
2021/11/14 03:22:42;;;;;;;24.45;10.98;;;10.60;99.50;;;;;;4991323;28;20597;-75
2021/11/14 03:25:08;;;;;;;23.95;9.15;;;10.70;99.50;;;;;;4992538;28;20023;-75
2021/11/14 03:27:34;;;;;;;19.92;9.60;;;10.70;99.50;;;;;;4992644;28;20034;-75
2021/11/14 03:30:00;;;;;;;20.50;9.13;;;10.70;99.50;;;;;;5023841;28;20069;-75
2021/11/14 03:32:26;;;;;;;18.80;8.50;;;10.70;99.50;;;;;;4991276;28;20039;-75
2021/11/14 03:34:51;;;;;;;25.17;10.82;;;10.70;99.50;;;;;;4992242;28;20026;-75
2021/11/14 03:37:20;;;;;;;20.02;9.45;;;10.80;99.50;;;;;;4992512;28;20018;-75
2021/11/14 03:39:47;;;;;;;22.83;10.32;;;10.80;99.50;;;;;;5023548;28;20030;-76
2021/11/14 03:42:13;;;;;;;21.73;10.60;;;10.80;99.50;;;;;;4991305;28;20038;-75
2021/11/14 03:44:40;;;;;;;24.13;10.20;;;10.80;99.50;;;;;;4992513;28;20022;-75
2021/11/14 03:47:06;;;;;;;24.95;10.40;;;10.80;99.50;;;;;;4992089;28;20149;-75
2021/11/14 03:49:32;;;;;;;26.30;11.38;;;10.80;99.50;;;;;;4992645;28;20026;-74
2021/11/14 03:51:58;;;;;;;24.55;9.80;;;10.80;99.40;;;;;;4990718;28;20080;-75
2021/11/14 03:54:24;;;;;;;25.58;10.70;;;10.80;99.50;;;;;;4992446;28;20026;-74
2021/11/14 03:56:50;;;;;;;25.52;10.68;;;10.80;99.50;;;;;;4991976;28;20106;-76
2021/11/14 03:59:16;;;;;;;24.38;10.38;;;10.80;99.50;;;;;;4991501;28;20042;-75
2021/11/14 04:01:42;;;;;;;24.05;11.32;;;10.80;99.60;;;;;;4996278;28;20038;-75
2021/11/14 04:04:08;;;;;;;25.48;10.85;;;10.80;99.60;;;;;;4994232;28;20058;-75
2021/11/14 04:06:33;;;;;;;25.27;11.32;;;10.80;99.60;;;;;;4994672;28;20062;-75
2021/11/14 04:09:00;;;;;;;26.10;9.75;;;10.70;99.60;;;;;;4994782;28;20475;-75
2021/11/14 04:11:25;;;;;;;27.25;11.40;;;10.70;99.60;;;;;;4995386;28;20066;-74
2021/11/14 04:13:52;;;;;;;26.88;10.80;;;10.80;99.60;;;;;;5026746;28;20054;-75
2021/11/14 04:16:19;;;;;;;24.85;10.82;;;10.70;99.60;;;;;;4995852;28;20173;-74
2021/11/14 04:18:45;;;;;;;22.17;10.27;;;10.80;99.60;;;;;;4995636;28;20463;-75
2021/11/14 04:21:11;;;;;;;28.88;10.70;;;10.80;99.60;;;;;;4993489;28;20030;-76
2021/11/14 04:23:38;;;;;;;26.20;10.50;;;10.70;99.60;;;;;;4994415;28;20031;-76
2021/11/14 04:26:06;;;;;;;22.83;9.88;;;10.80;99.60;;;;;;4995068;28;20470;-75
2021/11/14 04:28:33;;;;;;;25.08;10.82;;;10.80;99.60;;;;;;5027216;28;20467;-76
2021/11/14 04:30:59;;;;;;;24.33;10.32;;;10.80;99.60;;;;;;4993454;28;20030;-76
2021/11/14 04:33:25;;;;;;;23.35;10.45;;;10.80;99.60;;;;;;4994181;28;20026;-76
2021/11/14 04:35:52;;;;;;;25.33;9.95;;;10.80;99.60;;;;;;4994842;28;20100;-75
2021/11/14 04:38:18;;;;;;;24.85;10.93;;;10.80;99.60;;;;;;5026866;28;20048;-75
2021/11/14 04:40:45;;;;;;;28.15;11.48;;;10.80;99.50;;;;;;4995376;28;20049;-75
2021/11/14 04:43:14;;;;;;;29.42;10.82;;;10.80;99.60;;;;;;4994651;28;20027;-75
2021/11/14 04:45:40;;;;;;;28.08;12.35;;;10.80;99.60;;;;;;4993879;28;20025;-75
2021/11/14 04:48:06;;;;;;;28.40;11.43;;;10.80;99.60;;;;;;4994675;28;20026;-75
2021/11/14 04:50:33;;;;;;;26.00;10.93;;;10.80;99.60;;;;;;4995146;28;20044;-75
2021/11/14 04:52:59;;;;;;;25.17;11.38;;;10.80;99.60;;;;;;4994611;28;20515;-75
2021/11/14 04:55:25;;;;;;;23.05;10.25;;;10.80;99.50;;;;;;4994758;28;20092;-74
2021/11/14 04:57:51;;;;;;;26.10;10.55;;;10.80;99.50;;;;;;4993273;28;20538;-76
2021/11/14 05:00:27;;;;;;;30.23;11.50;;;10.80;99.50;;;;;;4993251;28;20042;-75
2021/11/14 05:02:54;;;;;;;23.67;10.40;;;10.80;99.50;;;;;;4993094;28;20046;-76
2021/11/14 05:05:19;;;;;;;26.10;11.93;;;10.80;99.50;;;;;;4993522;28;20156;-75
2021/11/14 05:07:45;;;;;;;24.95;10.65;;;10.80;99.60;;;;;;4994515;28;20486;-75
2021/11/14 05:10:11;;;;;;;29.77;11.40;;;10.80;99.60;;;;;;4993719;28;20896;-74
2021/11/14 05:12:37;;;;;;;25.23;12.13;;;10.80;99.50;;;;;;4993569;28;20026;-75
2021/11/14 05:15:05;;;;;;;26.92;11.45;;;10.80;99.50;;;;;;4992881;28;20018;-75
2021/11/14 05:17:30;;;;;;;26.50;12.07;;;10.80;99.50;;;;;;4994745;28;20019;-75
2021/11/14 05:19:56;;;;;;;27.25;11.07;;;10.80;99.50;;;;;;4992787;28;20129;-75
2021/11/14 05:22:22;;;;;;;22.73;10.05;;;10.80;99.50;;;;;;4994390;28;20038;-75
2021/11/14 05:24:47;;;;;;;29.30;11.20;;;10.90;99.50;;;;;;4994712;28;20030;-75
2021/11/14 05:27:13;;;;;;;30.23;12.05;;;10.90;99.50;;;;;;4994229;28;20033;-75
2021/11/14 05:29:39;;;;;;;26.67;11.38;;;10.80;99.50;;;;;;4994434;28;20118;-75
2021/11/14 05:32:05;;;;;;;25.95;10.95;;;10.80;99.70;;;;;;4993604;28;20038;-75
2021/11/14 05:34:31;;;;;;;29.35;11.55;;;10.80;99.50;;;;;;4992920;28;20018;-75
2021/11/14 05:36:56;;;;;;;28.20;12.00;;;10.80;99.50;;;;;;4993789;28;20073;-75
2021/11/14 05:39:22;;;;;;;25.77;11.25;;;10.90;99.50;;;;;;4993863;28;20526;-75
2021/11/14 05:41:48;;;;;;;23.50;10.93;;;10.90;99.50;;;;;;4992737;28;20034;-75
2021/11/14 05:44:14;;;;;;;29.38;10.82;;;10.90;99.50;;;;;;4993856;28;20030;-74
2021/11/14 05:46:40;;;;;;;26.95;11.63;;;10.90;99.50;;;;;;4992923;28;20022;-75
2021/11/14 05:49:09;;;;;;;25.08;10.95;;;10.90;99.50;;;;;;4993818;28;20346;-75
2021/11/14 05:51:38;;;;;;;29.38;10.57;;;10.90;99.50;;;;;;4993899;28;20464;-74
2021/11/14 05:54:04;;;;;;;27.25;10.93;;;10.90;99.50;;;;;;4992144;28;20368;-75
2021/11/14 05:56:30;;;;;;;24.95;10.00;;;10.90;99.40;;;;;;4993651;28;20056;-76
2021/11/14 06:02:07;;;;;;;25.13;10.00;;;10.90;99.40;;;;;;4993761;28;20054;-75
2021/11/14 06:06:54;;;;;;;29.98;10.63;;;11.00;99.40;;;;;;4993414;28;20030;-75
2021/11/14 06:09:20;;;;;;;21.85;9.85;;;10.90;99.40;;;;;;4993154;28;20153;-76
2021/11/14 06:11:46;;;;;;;23.92;10.75;;;11.00;99.40;;;;;;4992934;28;20092;-76
2021/11/14 06:14:12;;;;;;;29.63;11.00;;;11.00;99.40;;;;;;4992821;28;20026;-75
2021/11/14 06:16:38;;;;;;;19.50;9.38;;;11.00;99.40;;;;;;4992172;28;20525;-75
2021/11/14 06:19:04;;;;;;;25.95;11.02;;;11.00;99.40;;;;;;4992891;28;20482;-76
2021/11/14 06:21:29;;;;;;;21.83;9.13;;;11.00;99.40;;;;;;4991874;28;20026;-76
2021/11/14 06:23:55;;;;;;;25.33;11.32;;;11.00;99.40;;;;;;4991710;28;20026;-76
2021/11/14 06:26:23;;;;;;;26.10;9.90;;;10.90;99.40;;;;;;5024500;28;20027;-76
2021/11/14 06:28:49;;;;;;;24.23;10.32;;;10.90;99.40;;;;;;4993082;28;20430;-76
2021/11/14 06:31:14;;;;;;;27.98;10.95;;;10.90;99.40;;;;;;4992951;28;20026;-76
2021/11/14 06:33:40;;;;;;;22.30;9.15;;;10.90;99.40;;;;;;4991954;28;20462;-76
2021/11/14 06:36:06;;;;;;;24.67;9.70;;;11.00;99.40;;;;;;4992834;28;20101;-76
2021/11/14 06:38:32;;;;;;;28.25;11.30;;;11.00;99.40;;;;;;4992865;28;20089;-76
2021/11/14 06:40:57;;;;;;;30.17;11.00;;;10.90;99.40;;;;;;4991816;28;20036;-77
2021/11/14 06:43:23;;;;;;;25.27;10.20;;;10.90;99.40;;;;;;4991512;28;20045;-75
2021/11/14 06:45:49;;;;;;;28.40;10.82;;;11.00;99.50;;;;;;4992952;28;20101;-75
2021/11/14 06:48:14;;;;;;;22.10;9.82;;;11.00;99.40;;;;;;4991419;28;20438;-76
2021/11/14 06:50:40;;;;;;;25.85;10.93;;;11.00;99.40;;;;;;4993107;28;20049;-76
2021/11/14 06:53:06;;;;;;;21.13;9.68;;;11.00;99.40;;;;;;4991351;28;20368;-74
2021/11/14 06:55:32;;;;;;;22.17;9.90;;;11.00;99.40;;;;;;4991411;28;20049;-75
2021/11/14 06:57:58;;;;;;;21.35;9.73;;;11.00;99.40;;;;;;5024494;28;20030;-75
2021/11/14 07:00:24;;;;;;;22.50;9.88;;;10.90;99.30;;;;;;4990805;28;20046;-75
2021/11/14 07:02:51;;;;;;;22.17;10.40;;;10.90;99.40;;;;;;4992714;28;20113;-75
2021/11/14 07:05:17;;;;;;;24.05;9.93;;;10.90;99.40;;;;;;4992142;28;20112;-75
2021/11/14 07:07:43;;;;;;;21.30;9.85;;;10.90;99.50;;;;;;4992893;28;20043;-75
2021/11/14 07:10:12;;;;;;;24.65;9.90;;;10.90;99.40;;;;;;4992317;28;20031;-75
2021/11/14 07:12:38;;;;;;;21.90;9.55;;;10.90;99.40;;;;;;4991629;28;20416;-75
2021/11/14 07:15:06;;;;;;;22.48;8.70;;;11.00;99.40;;;;;;4991088;28;20022;-76
2021/11/14 07:17:32;;;;;;;22.20;9.68;;;11.00;99.40;;;;;;4992626;28;20571;-76
2021/11/14 07:20:00;;;;;;;19.75;9.57;;;11.00;99.40;;;;;;4993079;28;20097;-76
2021/11/14 07:22:26;;;;;;;21.52;9.10;;;11.00;99.30;;;;;;4992160;28;20077;-75
2021/11/14 07:24:52;;;;;;;19.98;8.43;;;11.00;99.30;;;;;;4994579;28;20374;-75
2021/11/14 07:27:18;;;;;;;21.73;9.73;;;11.00;99.30;;;;;;4991986;28;20054;-75
2021/11/14 07:29:43;;;;;;;22.55;8.68;;;11.00;99.30;;;;;;4992324;28;20137;-75
2021/11/14 07:32:10;;;;;;;21.67;9.32;;;11.00;99.30;;;;;;4990259;28;20030;-75
2021/11/14 07:34:36;;;;;;;18.65;8.60;;;11.00;99.30;;;;;;4993151;28;20027;-75
2021/11/14 07:37:02;;;;;;;22.15;9.10;;;11.00;99.30;;;;;;4994488;28;20019;-76
2021/11/14 07:39:28;;;;;;;24.25;9.38;;;11.00;99.30;;;;;;4994582;28;20018;-74
2021/11/14 07:41:53;;;;;;;20.05;8.63;;;11.00;99.20;;;;;;5027028;28;20045;-74
2021/11/14 07:44:19;;;;;;;21.38;9.32;;;11.00;99.20;;;;;;4994168;28;20542;-74
2021/11/14 07:46:45;;;;;;;20.92;9.18;;;11.00;99.30;;;;;;4996355;28;20069;-75
2021/11/14 07:49:11;;;;;;;18.65;8.45;;;11.00;99.30;;;;;;4993471;28;20474;-75
2021/11/14 07:51:37;;;;;;;19.77;8.80;;;11.00;99.20;;;;;;4996082;28;20054;-75
2021/11/14 07:54:04;;;;;;;22.23;9.50;;;11.00;99.20;;;;;;4994480;28;20493;-76
2021/11/14 07:56:30;;;;;;;21.20;8.95;;;11.10;99.20;;;;;;5027602;28;20022;-75
2021/11/14 07:58:57;;;;;;;21.60;8.63;;;11.10;99.20;;;;;;4995107;28;20027;-75
2021/11/14 08:01:23;;;;;;;21.08;8.40;;;11.10;99.20;;;;;;4995098;28;20042;-75
2021/11/14 08:03:50;;;;;;;21.25;8.57;;;11.10;99.20;;;;;;4994546;28;20033;-75
2021/11/14 08:06:17;;;;;;;25.23;9.00;;;11.00;99.20;;;;;;4995405;28;20026;-74
2021/11/14 08:08:42;;;;;;;22.23;8.93;;;11.00;99.20;;;;;;4995107;28;20038;-74
2021/11/14 08:11:08;;;;;;;18.60;8.10;;;11.10;99.20;;;;;;4995281;28;20022;-76
2021/11/14 08:13:34;;;;;;;21.38;8.85;;;11.10;99.20;;;;;;4995641;28;20057;-76
2021/11/14 08:16:00;;;;;;;20.33;8.10;;;11.10;99.20;;;;;;4993419;28;20404;-75
2021/11/14 08:18:26;;;;;;;27.83;10.57;;;11.10;99.20;;;;;;4995163;28;20026;-76
2021/11/14 08:20:52;;;;;;;21.52;8.55;;;11.10;99.20;;;;;;4995619;28;20030;-76
2021/11/14 08:23:19;;;;;;;18.67;8.15;;;11.10;99.10;;;;;;4994175;28;20474;-76
2021/11/14 08:25:45;;;;;;;20.08;8.70;;;11.10;99.10;;;;;;4994993;28;20022;-76
2021/11/14 08:28:11;;;;;;;18.52;8.07;;;11.10;99.10;;;;;;4994610;28;20030;-76
2021/11/14 08:30:37;;;;;;;17.90;8.38;;;11.10;99.10;;;;;;5015096;28;20220;-75
2021/11/14 08:33:04;;;;;;;18.13;7.95;;;11.10;99.10;;;;;;5013770;28;20089;-74
2021/11/14 08:35:30;;;;;;;21.73;8.82;;;11.10;99.10;;;;;;5014255;28;20033;-75
2021/11/14 08:38:00;;;;;;;19.27;7.97;;;11.10;99.00;;;;;;5014875;28;20378;-75
2021/11/14 08:40:28;;;;;;;17.98;8.07;;;11.10;99.00;;;;;;5010013;28;20330;-76
2021/11/14 08:42:57;;;;;;;14.90;6.40;;;11.20;99.00;;;;;;4993727;28;20057;-75
2021/11/14 08:45:24;;;;;;;17.27;7.85;;;11.20;99.00;;;;;;4993208;28;20031;-75
2021/11/14 08:47:50;;;;;;;18.27;7.07;;;11.20;98.90;;;;;;4994034;28;20034;-75
2021/11/14 08:50:16;;;;;;;15.80;6.85;;;11.20;98.90;;;;;;4993540;28;20031;-76
2021/11/14 08:52:45;;;;;;;20.80;7.95;;;11.20;98.90;;;;;;4993525;28;20029;-76
2021/11/14 08:55:20;;;;;;;16.38;7.43;;;11.20;98.90;;;;;;4992402;28;20030;-76
2021/11/14 08:57:47;;;;;;;19.38;8.13;;;11.20;98.90;;;;;;4994640;28;20395;-76
2021/11/14 09:00:16;;;;;;;16.90;7.07;;;11.20;98.90;;;;;;4991698;28;20045;-77
2021/11/14 09:02:42;;;;;;;16.98;7.40;;;11.30;98.90;;;;;;4994941;28;20057;-76
2021/11/14 09:05:08;;;;;;;20.35;7.95;;;11.30;98.90;;;;;;5026276;28;20026;-78
2021/11/14 09:07:34;;;;;;;18.45;8.02;;;11.30;98.90;;;;;;4991788;28;20104;-77
2021/11/14 09:10:00;;;;;;;20.80;9.00;;;11.30;98.80;;;;;;5026335;28;20105;-76
2021/11/14 09:12:26;;;;;;;16.42;7.57;;;11.30;98.80;;;;;;4994771;28;20058;-76
2021/11/14 09:14:53;;;;;;;19.15;8.27;;;11.40;98.70;;;;;;4994069;28;20030;-76
2021/11/14 09:17:19;;;;;;;19.67;7.85;;;11.40;98.70;;;;;;4990391;28;20521;-76
2021/11/14 09:19:47;;;;;;;21.50;8.60;;;11.50;98.70;;;;;;4993399;28;20022;-77
2021/11/14 09:22:12;;;;;;;18.33;7.90;;;11.50;98.60;;;;;;5025962;28;20339;-77
2021/11/14 09:24:38;;;;;;;19.13;8.10;;;11.50;98.60;;;;;;4993119;28;20455;-76
2021/11/14 09:27:04;;;;;;;19.77;7.22;;;11.50;98.60;;;;;;4994447;28;20033;-75
2021/11/14 09:29:30;;;;;;;17.65;8.57;;;11.40;98.60;;;;;;4992626;28;20209;-75
2021/11/14 09:31:56;;;;;;;15.68;7.35;;;11.50;98.60;;;;;;4992677;28;20034;-75
2021/11/14 09:34:22;;;;;;;19.23;8.57;;;11.50;98.60;;;;;;4993602;28;20069;-75
2021/11/14 09:36:48;;;;;;;18.83;8.23;;;11.50;98.60;;;;;;4994309;28;20474;-75
2021/11/14 09:39:14;;;;;;;19.25;8.35;;;11.50;98.60;;;;;;4998855;28;20034;-76
2021/11/14 09:41:50;;;;;;;21.77;8.45;;;11.50;98.60;;;;;;5002490;28;20040;-75
2021/11/14 09:44:17;;;;;;;19.60;8.80;;;11.50;98.60;;;;;;5011981;28;20026;-75
2021/11/14 09:46:52;;;;;;;21.25;8.35;;;11.50;98.50;;;;;;5013634;28;20056;-75
2021/11/14 09:49:26;;;;;;;17.52;7.50;;;11.60;98.50;;;;;;5012792;28;20026;-75
2021/11/14 09:51:54;;;;;;;18.05;8.88;;;11.60;98.50;;;;;;4993368;28;20153;-75
2021/11/14 09:54:22;;;;;;;16.10;6.57;;;11.60;98.40;;;;;;4992101;28;20474;-77
2021/11/14 09:56:49;;;;;;;17.92;7.15;;;11.60;98.40;;;;;;4992062;28;20351;-75
2021/11/14 09:59:15;;;;;;;19.13;7.47;;;11.60;98.30;;;;;;4993276;28;20113;-76
2021/11/14 10:01:44;;;;;;;21.60;8.23;;;11.60;98.40;;;;;;4993888;28;20109;-75
2021/11/14 10:04:11;;;;;;;17.70;8.05;;;11.60;98.40;;;;;;5009948;28;20463;-75
2021/11/14 10:06:37;;;;;;;15.55;7.88;;;11.60;98.60;;;;;;4974156;28;20050;-76
2021/11/14 10:09:04;;;;;;;16.30;7.47;;;11.70;98.40;;;;;;4988079;28;20034;-75
2021/11/14 10:11:41;;;;;;;21.35;8.85;;;11.60;98.30;;;;;;4984340;28;20050;-75
2021/11/14 10:14:08;;;;;;;17.35;8.40;;;11.60;98.30;;;;;;4979155;28;20018;-75
2021/11/14 10:16:35;;;;;;;18.75;7.82;;;11.60;98.60;;;;;;4990827;28;20058;-76
2021/11/14 10:19:06;;;;;;;19.23;8.45;;;11.70;98.30;;;;;;4948330;28;20427;-77
2021/11/14 10:21:32;;;;;;;;;;;11.70;98.30;;;;;;4984396;28;20053;-77
2021/11/14 10:24:00;;;;;;;16.58;7.82;;;11.70;98.30;;;;;;4984946;28;19956;-76
2021/11/14 10:26:27;;;;;;;17.63;8.00;;;11.70;98.20;;;;;;4985354;28;20054;-76
2021/11/14 10:29:02;;;;;;;16.40;7.40;;;11.70;98.20;;;;;;4982998;28;21029;-76
2021/11/14 10:31:29;;;;;;;18.75;7.90;;;11.70;98.20;;;;;;4982075;28;20073;-76
2021/11/14 10:33:55;;;;;;;22.70;8.50;;;11.60;98.20;;;;;;4985566;28;20034;-76
2021/11/14 10:36:24;;;;;;;18.98;7.95;;;11.60;98.30;;;;;;4983764;28;20085;-77
2021/11/14 10:38:58;;;;;;;21.10;9.13;;;11.70;98.30;;;;;;4985522;28;20493;-76
2021/11/14 10:41:24;;;;;;;19.38;8.05;;;11.60;98.20;;;;;;4981694;28;20133;-75
2021/11/14 10:43:54;;;;;;;15.10;7.82;;;11.70;98.20;;;;;;4986261;28;20121;-76
2021/11/14 10:46:23;;;;;;;18.98;8.25;;;11.70;98.20;;;;;;4985209;28;20162;-76
2021/11/14 10:48:50;;;;;;;19.20;8.43;;;11.70;98.10;;;;;;4986381;28;20026;-77
2021/11/14 10:51:17;;;;;;;21.98;8.70;;;11.70;98.10;;;;;;4984225;28;20074;-74
2021/11/14 10:53:45;;;;;;;17.15;8.32;;;11.70;98.10;;;;;;4984407;28;20046;-77
2021/11/14 10:56:12;;;;;;;17.83;8.63;;;11.70;98.20;;;;;;4985110;28;20022;-77
2021/11/14 10:58:42;;;;;;;20.92;8.65;;;11.70;98.20;;;;;;4983205;28;20118;-78
2021/11/14 11:01:12;;;;;;;20.75;9.10;;;11.70;98.20;;;;;;4989786;28;20125;-77
2021/11/14 11:03:45;;;;;;;20.58;8.77;;;11.70;98.10;;;;;;4990727;28;20034;-77
2021/11/14 11:06:26;;;;;;;21.77;9.15;;;11.70;98.10;;;;;;4991389;28;20038;-77
2021/11/14 11:09:03;;;;;;;21.52;8.60;;;11.70;98.10;;;;;;4991701;28;20019;-77
2021/11/14 11:11:29;;;;;;;22.58;9.30;;;11.70;98.10;;;;;;4995300;28;20026;-77
2021/11/14 11:13:55;;;;;;;24.67;10.25;;;11.80;98.10;;;;;;4995424;28;20157;-77
2021/11/14 11:16:24;;;;;;;23.38;9.05;;;11.80;98.00;;;;;;4995181;28;20101;-77
2021/11/14 11:19:05;;;;;;;17.17;8.10;;;11.80;97.90;;;;;;4996991;28;20109;-75
2021/11/14 11:21:37;;;;;;;24.35;9.77;;;11.80;97.90;;;;;;4996196;28;20030;-75
2021/11/14 11:24:13;;;;;;;22.77;10.52;;;11.80;97.90;;;;;;4996741;28;20052;-75
2021/11/14 11:26:51;;;;;;;21.67;8.90;;;11.70;97.90;;;;;;4996515;28;20109;-74
2021/11/14 11:29:19;;;;;;;29.63;9.95;;;11.70;97.90;;;;;;4992903;28;20023;-76
2021/11/14 11:31:47;;;;;;;21.40;9.15;;;11.70;98.00;;;;;;4994579;28;20505;-75
2021/11/14 11:34:16;;;;;;;23.13;9.10;;;11.70;98.00;;;;;;4994105;28;20502;-75
2021/11/14 11:36:42;;;;;;;21.83;9.48;;;11.80;97.90;;;;;;4992777;28;20349;-75
2021/11/14 11:39:08;;;;;;;19.55;9.77;;;11.80;97.80;;;;;;4994397;28;20529;-74
2021/11/14 11:41:35;;;;;;;23.95;10.30;;;11.90;97.80;;;;;;4981367;28;20023;-75
2021/11/14 11:44:01;;;;;;;21.38;8.80;;;11.90;97.70;;;;;;4974519;28;20031;-75
2021/11/14 11:46:34;;;;;;;26.88;10.65;;;12.00;97.70;;;;;;4973779;28;20500;-75
2021/11/14 11:49:03;;;;;;;24.48;10.73;;;12.10;97.60;;;;;;5005488;28;20356;-75
2021/11/14 11:51:32;;;;;;;26.08;10.43;;;12.10;97.50;;;;;;4974101;28;20023;-75
2021/11/14 11:54:08;;;;;;;30.17;10.82;;;12.10;97.40;;;;;;4974209;28;20998;-76
2021/11/14 11:56:43;;;;;;;23.05;10.77;;;12.10;97.40;;;;;;4974634;28;20034;-74
2021/11/14 11:59:15;;;;;;;21.52;9.45;;;12.20;97.40;;;;;;4974963;28;20034;-74
2021/11/14 12:01:47;;;;;;;23.48;11.30;;;12.20;97.40;;;;;;5006925;28;20042;-75
2021/11/14 12:04:20;;;;;;;20.52;9.23;;;12.20;97.30;;;;;;4975751;28;20475;-76
2021/11/14 12:07:01;;;;;;;21.23;9.68;;;12.30;97.30;;;;;;5007094;28;20361;-75
2021/11/14 12:09:55;;;;;;;19.15;8.98;;;12.40;97.20;;;;;;5007318;28;20023;-75
2021/11/14 12:12:43;;;;;;;24.33;9.23;;;12.40;97.10;;;;;;5007142;28;20038;-73
2021/11/14 12:15:18;;;;;;;20.25;9.93;;;12.40;97.10;;;;;;5007510;28;20129;-75
2021/11/14 12:17:52;;;;;;;21.85;9.38;;;12.50;97.10;;;;;;4991658;28;20027;-74
2021/11/14 12:20:23;;;;;;;23.35;9.70;;;12.50;97.10;;;;;;4994926;28;20023;-74
2021/11/14 12:22:52;;;;;;;21.77;8.95;;;12.50;97.10;;;;;;4995313;28;20041;-73
2021/11/14 12:25:24;;;;;;;22.45;10.10;;;12.50;97.10;;;;;;4995836;28;20029;-74
2021/11/14 12:27:58;;;;;;;19.58;9.60;;;12.50;97.10;;;;;;4995287;28;20029;-74
2021/11/14 12:30:24;;;;;;;22.23;9.75;;;12.50;97.10;;;;;;4993526;28;20030;-72
2021/11/14 12:32:51;;;;;;;19.77;8.35;;;12.50;97.10;;;;;;4993902;28;20363;-75
2021/11/14 12:35:40;;;;;;;21.25;9.30;;;12.50;97.10;;;;;;4994043;28;20053;-75
2021/11/14 12:38:09;;;;;;;16.70;7.97;;;12.60;97.00;;;;;;4993746;28;20130;-74
2021/11/14 12:40:45;;;;;;;21.42;9.68;;;12.50;97.00;;;;;;4994456;28;20029;-75
2021/11/14 12:43:12;;;;;;;19.67;9.27;;;12.50;97.10;;;;;;4994201;28;20042;-74